Metar Aviation Weather Data KPBI

81°F Temp
70°F Dewpoint
% Humidity
Temperature
12 MPH
19 KM/H
10 KTS
90°
Due East

Wind Speed
Mostly Scattered
Clouds
Pressure 1016.92 (hPa) - 30.03 (in)
Visibility 10.0 (mi) - 16.1 (km)

Current Conditions
KPBI
Metar :KPBI 200153Z 09010KT 10SM SCT023 27/21 A3003 RMK AO2 SLP167 T02720206
Sun 19th May 21:53 pm

  Metar Aviation API Data Provided by https://www.checkwx.com/ PHP scripts by weather34.com ©2019